Sault Sainte Marie, MI

6:02 AM EST on December 27, 2014 (GMT -0500)
Mackinac Island | Change Station
CLOSE
Current Station
Airport
Location: Mackinac Island,
Elevation: 741 ft
Nearby Weather Stations
Active Advisory: Special Statement

Elev 741 ft 45.87 °N, 84.64 °W | Updated 7 minutes ago

Snow
Snow
36 °F
Feels Like 31 °F
N
7
Wind Variable Wind from SSE

Today
High -- | Low -- °F
--% Chance of Precip.
Yesterday
High -- | Low -- °F
Precip. -- in
8:20 AM 4:56 PM
Waxing Crescent, 35% visible
Pressure 29.95 in
Visibility 10.0 miles
Clouds Scattered Clouds 2300 ft
Scattered Clouds 2900 ft
Overcast 4500 ft
Windchill 31 °F
Dew Point 36 °F
Humidity 99%
Rainfall 0.03 in
Snow Depth Not available.
UV 0 out of 12
Pollen .10 out of 12
Air Quality Not available.
Flu Activity Not available.
METAR KMCD 271055Z AUTO 16006KT 10SM SCT023 SCT029 OVC045 03/02 A2995 RMK AO2 T00250023

More Conditions Fewer Conditions

Pressure 29.95 in
Visibility 10.0 miles
Clouds Scattered Clouds 2300 ft
Scattered Clouds 2900 ft
Overcast 4500 ft
Windchill 31 °F
Dew Point 36 °F
Humidity 99%
Rainfall 0.03 in
Snow Depth Not available.
UV 0 out of 12
Pollen .10 out of 12
Air Quality Not available.
Flu Activity Not available.
METAR KMCD 271055Z AUTO 16006KT 10SM SCT023 SCT029 OVC045 03/02 A2995 RMK AO2 T00250023

More Conditions Fewer Conditions

Nowcast | as of 6:00 am EST on December 27, 2014

At 7 am...cloudy. Patchy fog. Chance of rain and snow. Temperature 33. Light winds. At 9 am...snow. Temperature 33. Light winds. At 11 am...snow. Temperature 34. Light winds. At 1 PM...snow. Temperature 34. East winds 5 mph.

×

10-Day Weather Forecast

Almanac

Astronomy

Dec. 27, 2014 Rise Set
Actual Time
Civil Twilight
Nautical Twilight
Astronomical Twilight
Moon
Length of Visible Light
Length of Day
Tomorrow will be .
, % of the Moon is Illuminated

Today's Extremes

State Highs State Lows

Community

WunderPhotos

Upload Photos

1,780,878 photos uploaded!

WunderBlogs® & News

Nearby

Air Quality

  Air Quality AQ Index Pollutant
Not available.

Snow Depth

Station Depth Elevation

Earthquake Activity

City Distance Mag. Time & Date
Minimum magnitude displayed is 2.5.

Coastal Water Temperatures

Place Temperature

Nearby Weather Stations